Maseru, Lesotho
Current Conditions -  °F | °C
As of 11:00 PM on Saturday 25 Oct 2014 (Local Time) from FABL Reporting Station
NA  
Wind Chill: 66°   Ceiling: NA
Heat Index: 66°   Visibility: NA
Dew Point: 46°   Wind: 14mph
Humidity: 49%   Direction: 20°NNE
Pressure: 30.18"   Gusts: NA
Location:  29.31°S, 27.49°E
Report Text: FABL 252100Z AUTO 02012KT //// // ////// 19/08 Q1022
Loading
Personal Weather Stations






























Interactive Weather Map
Tropical Storm Tracking
New forecast layout! Learn more

10-Day Weather Forecast

Advertisements
Track Severe Weather on mobile